Time;durP1;ratioP1;P1;durP2;ratioP2;P2;SDS_P1;SDS_P2;PMS_P1;PMS_P2;Temp;Humidity;BMP_temperature;BMP_pressure;BME280_temperature;BME280_humidity;BME280_pressure;Samples;Min_cycle;Max_cycle;Signal;HPM_P1;HPM_P2
2021/05/09 00:02:27;;;;;;;11.32;6.93;;;;;;;;;;6247491;28;20056;-72
2021/05/09 00:05:28;;;;;;;14.55;6.90;;;;;;;;;;6239995;28;20128;-73
2021/05/09 00:08:30;;;;;;;12.07;7.68;;;;;;;;;;6258435;28;20501;-72
2021/05/09 00:11:31;;;;;;;11.40;6.63;;;;;;;;;;6239726;28;20100;-72
2021/05/09 00:14:32;;;;;;;11.05;7.10;;;;;;;;;;6246807;28;20049;-72
2021/05/09 00:17:33;;;;;;;13.80;6.68;;;;;;;;;;6249230;28;20099;-72
2021/05/09 00:20:36;;;;;;;12.68;6.20;;;;;;;;;;6248671;28;20099;-73
2021/05/09 00:23:37;;;;;;;9.35;5.78;;;;;;;;;;6248290;28;20041;-73
2021/05/09 00:26:39;;;;;;;7.93;5.60;;;;;;;;;;6243564;28;20493;-73
2021/05/09 00:29:40;;;;;;;8.45;5.65;;;;;;;;;;6234441;28;20653;-73
2021/05/09 00:32:41;;;;;;;10.98;5.03;;;;;;;;;;6249971;28;20136;-72
2021/05/09 00:35:42;;;;;;;8.68;5.05;;;;;;;;;;6234049;28;20068;-72
2021/05/09 00:38:44;;;;;;;9.00;5.10;;;;;;;;;;6233613;28;20045;-72
2021/05/09 00:41:45;;;;;;;10.23;5.68;;;;;;;;;;6242964;28;20090;-72
2021/05/09 00:44:46;;;;;;;8.32;4.63;;;;;;;;;;6246773;28;20060;-72
2021/05/09 00:47:48;;;;;;;7.65;4.82;;;;;;;;;;6247682;28;20037;-72
2021/05/09 00:50:50;;;;;;;10.45;5.25;;;;;;;;;;6243503;28;20076;-72
2021/05/09 00:53:52;;;;;;;10.77;5.03;;;;;;;;;;6241341;28;20041;-73
2021/05/09 00:56:54;;;;;;;8.68;4.15;;;;;;;;;;6244561;28;20572;-72
2021/05/09 00:59:56;;;;;;;7.50;4.20;;;;;;;;;;6262052;28;20140;-73
2021/05/09 01:02:58;;;;;;;6.60;4.40;;;;;;;;;;6545149;22;20594;-74
2021/05/09 01:06:00;;;;;;;7.85;3.63;;;;;;;;;;6249417;28;20460;-74
2021/05/09 01:09:02;;;;;;;9.52;3.80;;;;;;;;;;6276739;28;20053;-74
2021/05/09 01:12:04;;;;;;;9.27;4.32;;;;;;;;;;6268233;28;20135;-73
2021/05/09 01:15:06;;;;;;;8.88;4.55;;;;;;;;;;6268575;28;20472;-73
2021/05/09 01:18:08;;;;;;;9.00;4.38;;;;;;;;;;6273549;28;20055;-74
2021/05/09 01:21:09;;;;;;;5.93;3.90;;;;;;;;;;6280298;28;20503;-73
2021/05/09 01:24:11;;;;;;;5.88;4.03;;;;;;;;;;6259687;28;20135;-74
2021/05/09 01:27:12;;;;;;;7.20;3.42;;;;;;;;;;6260224;28;20095;-73
2021/05/09 01:30:14;;;;;;;8.68;3.88;;;;;;;;;;6274723;28;20076;-75
2021/05/09 01:33:15;;;;;;;5.47;3.55;;;;;;;;;;6279400;28;20135;-73
2021/05/09 01:36:17;;;;;;;5.35;3.58;;;;;;;;;;6261893;28;20091;-73
2021/05/09 01:39:18;;;;;;;6.75;3.50;;;;;;;;;;6282517;28;20140;-73
2021/05/09 01:42:19;;;;;;;6.38;3.50;;;;;;;;;;6264795;28;20068;-73
2021/05/09 01:45:20;;;;;;;10.68;3.95;;;;;;;;;;6265170;28;20531;-72
2021/05/09 01:48:21;;;;;;;5.80;3.42;;;;;;;;;;6286295;28;20791;-73
2021/05/09 01:51:23;;;;;;;4.38;3.33;;;;;;;;;;6268342;28;20049;-73
2021/05/09 01:54:24;;;;;;;5.28;3.35;;;;;;;;;;6289501;28;20103;-73
2021/05/09 01:57:25;;;;;;;6.88;3.35;;;;;;;;;;6289453;28;20068;-72
2021/05/09 02:00:26;;;;;;;5.25;3.33;;;;;;;;;;6288924;28;20135;-73
2021/05/09 02:03:27;;;;;;;5.88;3.60;;;;;;;;;;6263512;28;20109;-73
2021/05/09 02:06:29;;;;;;;8.50;3.60;;;;;;;;;;6264009;28;20119;-73
2021/05/09 02:09:30;;;;;;;3.72;2.97;;;;;;;;;;6281796;28;20520;-73
2021/05/09 02:12:31;;;;;;;3.88;3.40;;;;;;;;;;6284838;28;20178;-73
2021/05/09 02:15:33;;;;;;;7.05;3.33;;;;;;;;;;6280777;28;20530;-73
2021/05/09 02:18:34;;;;;;;5.68;3.15;;;;;;;;;;6281284;28;20079;-73
2021/05/09 02:21:36;;;;;;;5.80;2.80;;;;;;;;;;6280920;28;20563;-73
2021/05/09 02:24:37;;;;;;;5.18;3.13;;;;;;;;;;6298406;28;20072;-73
2021/05/09 02:27:38;;;;;;;8.68;2.95;;;;;;;;;;6282267;28;20162;-73
2021/05/09 02:30:39;;;;;;;6.57;3.85;;;;;;;;;;6279103;28;20143;-73
2021/05/09 02:33:40;;;;;;;5.00;3.13;;;;;;;;;;6282537;28;21785;-73
2021/05/09 02:36:44;;;;;;;6.47;3.08;;;;;;;;;;6282709;28;20121;-73
2021/05/09 02:39:46;;;;;;;;;;;;;;;;;;6282876;28;20143;-73
2021/05/09 02:42:47;;;;;;;3.53;2.80;;;;;;;;;;6281096;28;19928;-72
2021/05/09 02:45:48;;;;;;;5.60;2.80;;;;;;;;;;6281878;28;20068;-73
2021/05/09 02:48:49;;;;;;;7.20;3.72;;;;;;;;;;6279447;28;20451;-73
2021/05/09 02:51:51;;;;;;;5.75;2.97;;;;;;;;;;6282761;28;20142;-73
2021/05/09 02:54:53;;;;;;;4.15;3.03;;;;;;;;;;6279584;28;20496;-72
2021/05/09 02:57:54;;;;;;;3.85;2.83;;;;;;;;;;6284510;28;20751;-74
2021/05/09 03:00:55;;;;;;;6.80;3.50;;;;;;;;;;6281411;28;20681;-73
2021/05/09 03:03:56;;;;;;;6.53;2.85;;;;;;;;;;6283783;28;20091;-73
2021/05/09 03:06:58;;;;;;;5.88;3.05;;;;;;;;;;6279525;28;20172;-73
2021/05/09 03:09:59;;;;;;;5.03;3.10;;;;;;;;;;6283853;28;20072;-73
2021/05/09 03:13:00;;;;;;;4.13;3.10;;;;;;;;;;6264674;28;20064;-73
2021/05/09 03:16:02;;;;;;;8.07;3.05;;;;;;;;;;6263874;28;20068;-73
2021/05/09 03:19:03;;;;;;;7.95;3.28;;;;;;;;;;6281498;28;20135;-73
2021/05/09 03:22:05;;;;;;;7.32;3.58;;;;;;;;;;6285001;28;20075;-73
2021/05/09 03:25:07;;;;;;;4.10;2.95;;;;;;;;;;6280548;28;20144;-73
2021/05/09 03:28:08;;;;;;;7.15;3.30;;;;;;;;;;6283475;28;20135;-73
2021/05/09 03:31:09;;;;;;;8.73;3.58;;;;;;;;;;6280917;28;20135;-73
2021/05/09 03:34:10;;;;;;;7.93;3.55;;;;;;;;;;6283279;28;20073;-72
2021/05/09 03:37:12;;;;;;;6.13;3.05;;;;;;;;;;6276257;28;20060;-73
2021/05/09 03:40:15;;;;;;;8.70;3.55;;;;;;;;;;6282400;28;20067;-73
2021/05/09 03:43:17;;;;;;;5.07;3.10;;;;;;;;;;6282464;28;20065;-73
2021/05/09 03:46:18;;;;;;;4.82;3.30;;;;;;;;;;6280115;28;20064;-73
2021/05/09 03:49:19;;;;;;;4.50;3.25;;;;;;;;;;6280287;28;20665;-73
2021/05/09 03:52:21;;;;;;;7.90;3.78;;;;;;;;;;6279509;28;20536;-73
2021/05/09 03:55:22;;;;;;;7.38;3.50;;;;;;;;;;6279449;28;20120;-73
2021/05/09 03:58:23;;;;;;;6.07;3.03;;;;;;;;;;6267533;28;20073;-73
2021/05/09 04:01:25;;;;;;;8.02;3.47;;;;;;;;;;6255442;28;20100;-73
2021/05/09 04:04:26;;;;;;;5.13;3.10;;;;;;;;;;6264711;28;20064;-73
2021/05/09 04:07:27;;;;;;;7.32;3.25;;;;;;;;;;6258950;28;20231;-72
2021/05/09 04:10:29;;;;;;;4.75;2.97;;;;;;;;;;6255478;28;20467;-73
2021/05/09 04:13:43;;;;;;;5.75;3.10;;;;;;;;;;6256151;28;20124;-73
2021/05/09 04:16:44;;;;;;;6.80;3.40;;;;;;;;;;6256985;28;20076;-73
2021/05/09 04:19:45;;;;;;;6.25;3.05;;;;;;;;;;6271829;28;20080;-73
2021/05/09 04:22:47;;;;;;;5.72;3.15;;;;;;;;;;6255267;28;21597;-73
2021/05/09 04:25:50;;;;;;;7.05;3.33;;;;;;;;;;6281615;28;20112;-73
2021/05/09 04:28:51;;;;;;;7.97;3.28;;;;;;;;;;6276155;28;20075;-73
2021/05/09 04:31:52;;;;;;;6.47;3.10;;;;;;;;;;6277334;28;20135;-73
2021/05/09 04:34:53;;;;;;;7.13;3.08;;;;;;;;;;6277436;28;20087;-73
2021/05/09 04:37:55;;;;;;;4.85;2.97;;;;;;;;;;6280864;28;20228;-73
2021/05/09 04:40:56;;;;;;;4.50;3.10;;;;;;;;;;6277354;28;20060;-73
2021/05/09 04:43:58;;;;;;;3.92;2.70;;;;;;;;;;6280284;28;20071;-73
2021/05/09 04:46:59;;;;;;;7.65;3.15;;;;;;;;;;6277780;28;20538;-73
2021/05/09 04:50:01;;;;;;;5.13;2.88;;;;;;;;;;6278885;28;20096;-73
2021/05/09 04:53:03;;;;;;;7.07;3.22;;;;;;;;;;6279121;28;20171;-73
2021/05/09 04:56:06;;;;;;;3.92;2.70;;;;;;;;;;6277557;28;20045;-73
2021/05/09 04:59:07;;;;;;;4.00;2.72;;;;;;;;;;6277531;28;20063;-73
2021/05/09 05:02:08;;;;;;;11.10;3.35;;;;;;;;;;6274551;28;20090;-73
2021/05/09 05:05:11;;;;;;;4.28;2.47;;;;;;;;;;6268291;28;20149;-73
2021/05/09 05:08:13;;;;;;;5.50;3.10;;;;;;;;;;6291938;28;20514;-73
2021/05/09 05:11:14;;;;;;;5.68;2.95;;;;;;;;;;6278616;28;20056;-73
2021/05/09 05:14:15;;;;;;;3.35;2.53;;;;;;;;;;6280012;28;20459;-73
2021/05/09 05:17:16;;;;;;;8.23;3.10;;;;;;;;;;6281846;28;20526;-73
2021/05/09 05:20:18;;;;;;;5.07;2.83;;;;;;;;;;6278907;28;20062;-73
2021/05/09 05:23:19;;;;;;;5.15;2.45;;;;;;;;;;6282929;28;20064;-73
2021/05/09 05:26:21;;;;;;;4.80;2.72;;;;;;;;;;6277251;28;20468;-73
2021/05/09 05:29:22;;;;;;;6.07;3.33;;;;;;;;;;6286072;28;20631;-73
2021/05/09 05:32:23;;;;;;;6.13;3.03;;;;;;;;;;6281286;28;20175;-73
2021/05/09 05:35:25;;;;;;;6.03;2.55;;;;;;;;;;6279215;28;20048;-73
2021/05/09 05:38:27;;;;;;;5.53;2.80;;;;;;;;;;6280029;28;20045;-72
2021/05/09 05:41:29;;;;;;;5.22;3.08;;;;;;;;;;6278651;28;20492;-73
2021/05/09 05:44:30;;;;;;;6.05;3.00;;;;;;;;;;6282127;28;20048;-73
2021/05/09 05:47:31;;;;;;;6.13;2.90;;;;;;;;;;6281459;28;20098;-73
2021/05/09 05:50:32;;;;;;;4.82;2.78;;;;;;;;;;6284868;28;20538;-73
2021/05/09 05:53:34;;;;;;;5.40;2.90;;;;;;;;;;6281544;28;20045;-73
2021/05/09 05:56:35;;;;;;;5.60;2.80;;;;;;;;;;6280623;28;20153;-73
2021/05/09 05:59:36;;;;;;;3.83;3.03;;;;;;;;;;6283039;28;20369;-73
2021/05/09 06:02:37;;;;;;;3.75;2.50;;;;;;;;;;6279138;28;20483;-73
2021/05/09 06:05:38;;;;;;;4.85;2.80;;;;;;;;;;6281368;28;20078;-73
2021/05/09 06:08:42;;;;;;;5.97;2.75;;;;;;;;;;6285850;28;20214;-73
2021/05/09 06:11:43;;;;;;;5.85;2.60;;;;;;;;;;6273832;28;20045;-73
2021/05/09 06:14:44;;;;;;;5.78;2.80;;;;;;;;;;6287179;28;20127;-73
2021/05/09 06:17:45;;;;;;;4.82;2.60;;;;;;;;;;6282884;28;20080;-73
2021/05/09 06:20:46;;;;;;;3.95;2.10;;;;;;;;;;6283309;28;20075;-73
2021/05/09 06:23:48;;;;;;;6.65;2.17;;;;;;;;;;6281071;28;20131;-73
2021/05/09 06:26:49;;;;;;;4.03;2.38;;;;;;;;;;6282346;28;20075;-73
2021/05/09 06:29:50;;;;;;;3.60;2.08;;;;;;;;;;6280475;28;20435;-73
2021/05/09 06:32:52;;;;;;;5.40;2.08;;;;;;;;;;6263358;28;20045;-73
2021/05/09 06:35:53;;;;;;;3.08;1.70;;;;;;;;;;6282490;28;20554;-73
2021/05/09 06:38:55;;;;;;;3.20;1.77;;;;;;;;;;6280376;28;20052;-73
2021/05/09 06:41:58;;;;;;;2.08;1.67;;;;;;;;;;6254638;28;20587;-73
2021/05/09 06:45:03;;;;;;;5.05;1.48;;;;;;;;;;6257958;28;20393;-73
2021/05/09 06:48:06;;;;;;;8.40;2.10;;;;;;;;;;6268931;28;20044;-73
2021/05/09 06:51:07;;;;;;;3.40;1.58;;;;;;;;;;6280244;28;20093;-73
2021/05/09 06:54:09;;;;;;;5.57;1.65;;;;;;;;;;6282617;28;20137;-73
2021/05/09 06:57:10;;;;;;;3.03;1.65;;;;;;;;;;6281125;28;20080;-73
2021/05/09 07:00:12;;;;;;;3.75;1.85;;;;;;;;;;6281182;28;20476;-73
2021/05/09 07:03:13;;;;;;;6.93;1.92;;;;;;;;;;6282821;28;20088;-72
2021/05/09 07:06:14;;;;;;;4.22;2.22;;;;;;;;;;6280883;28;20064;-73
2021/05/09 07:09:16;;;;;;;5.82;1.90;;;;;;;;;;6279892;28;20044;-74
2021/05/09 07:12:17;;;;;;;3.90;2.00;;;;;;;;;;6288112;28;20052;-74
2021/05/09 07:15:24;;;;;;;4.22;2.20;;;;;;;;;;6264488;28;20079;-74
2021/05/09 07:18:26;;;;;;;3.40;1.98;;;;;;;;;;6272045;28;20503;-74
2021/05/09 07:21:31;;;;;;;5.95;2.08;;;;;;;;;;6264758;28;20423;-73
2021/05/09 07:24:33;;;;;;;4.60;1.95;;;;;;;;;;6269931;28;20202;-73
2021/05/09 07:27:34;;;;;;;6.78;2.45;;;;;;;;;;6265971;28;20139;-73
2021/05/09 07:30:37;;;;;;;2.75;1.85;;;;;;;;;;6267092;28;20127;-73
2021/05/09 07:33:38;;;;;;;4.22;2.10;;;;;;;;;;6255418;28;20080;-73
2021/05/09 07:36:39;;;;;;;6.25;2.67;;;;;;;;;;6256326;28;20148;-73
2021/05/09 07:39:41;;;;;;;6.07;2.35;;;;;;;;;;6277495;28;20112;-73
2021/05/09 07:42:42;;;;;;;4.13;2.13;;;;;;;;;;6284381;28;20091;-73
2021/05/09 07:45:44;;;;;;;4.75;2.40;;;;;;;;;;6277802;28;20548;-73
2021/05/09 07:48:45;;;;;;;4.70;1.80;;;;;;;;;;6266395;28;20049;-74
2021/05/09 07:51:46;;;;;;;4.75;2.05;;;;;;;;;;6258416;28;20041;-73
2021/05/09 07:54:48;;;;;;;5.65;2.33;;;;;;;;;;6256005;28;20499;-74
2021/05/09 07:57:49;;;;;;;9.60;2.40;;;;;;;;;;6269565;28;20057;-73
2021/05/09 08:00:50;;;;;;;6.38;2.50;;;;;;;;;;6267874;28;20075;-74
2021/05/09 08:03:51;;;;;;;3.95;2.63;;;;;;;;;;6280488;28;20075;-74
2021/05/09 08:06:52;;;;;;;4.50;1.98;;;;;;;;;;6266564;28;20532;-73
2021/05/09 08:09:54;;;;;;;4.30;2.42;;;;;;;;;;6264204;28;20126;-74
2021/05/09 08:12:55;;;;;;;6.38;2.30;;;;;;;;;;6264237;28;20069;-74
2021/05/09 08:15:57;;;;;;;7.00;2.58;;;;;;;;;;6257693;28;20488;-74
2021/05/09 08:18:58;;;;;;;5.78;3.13;;;;;;;;;;6263541;28;20403;-74
2021/05/09 08:22:00;;;;;;;4.82;2.20;;;;;;;;;;6257052;28;20067;-74
2021/05/09 08:25:03;;;;;;;7.97;2.40;;;;;;;;;;6260174;28;20064;-74
2021/05/09 08:28:04;;;;;;;8.10;2.88;;;;;;;;;;6257607;28;20087;-75
2021/05/09 08:31:06;;;;;;;6.13;2.33;;;;;;;;;;6254931;28;20045;-72
2021/05/09 08:34:07;;;;;;;8.43;3.00;;;;;;;;;;6278606;28;20060;-74
2021/05/09 08:37:08;;;;;;;5.28;2.65;;;;;;;;;;6278475;28;20411;-74
2021/05/09 08:40:13;;;;;;;7.50;3.08;;;;;;;;;;6279148;28;20040;-74
2021/05/09 08:43:14;;;;;;;6.45;2.50;;;;;;;;;;6281039;28;20057;-73
2021/05/09 08:46:15;;;;;;;8.07;2.58;;;;;;;;;;6280178;28;20796;-75
2021/05/09 08:49:18;;;;;;;6.18;2.38;;;;;;;;;;6281922;28;20065;-75
2021/05/09 08:52:19;;;;;;;5.28;2.70;;;;;;;;;;6280910;28;20045;-75
2021/05/09 08:55:23;;;;;;;10.32;2.58;;;;;;;;;;6277559;28;20707;-76
2021/05/09 08:58:25;;;;;;;4.82;3.03;;;;;;;;;;6279341;28;20117;-74
2021/05/09 09:01:34;;;;;;;6.68;2.92;;;;;;;;;;6281598;28;20458;-76
2021/05/09 09:04:55;;;;;;;12.63;5.25;;;;;;;;;;6287562;28;20186;-76
2021/05/09 09:07:56;;;;;;;6.57;2.20;;;;;;;;;;6266216;28;20044;-77
2021/05/09 09:11:01;;;;;;;9.45;2.80;;;;;;;;;;6269806;28;20041;-77
2021/05/09 09:14:10;;;;;;;9.48;2.22;;;;;;;;;;6267456;28;20133;-76
2021/05/09 09:17:13;;;;;;;8.20;2.70;;;;;;;;;;6268853;28;20056;-78
2021/05/09 09:20:16;;;;;;;;;;;;;;;;;;6266031;28;20033;-82
2021/05/09 09:23:17;;;;;;;7.93;2.97;;;;;;;;;;6285160;28;19947;-78
2021/05/09 09:26:41;;;;;;;6.10;2.60;;;;;;;;;;6290638;28;20044;-79
2021/05/09 09:29:42;;;;;;;16.83;8.52;;;;;;;;;;6280423;28;20645;-75
2021/05/09 09:33:07;;;;;;;6.60;2.85;;;;;;;;;;6265918;28;20045;-79
2021/05/09 09:36:19;;;;;;;5.95;2.28;;;;;;;;;;6300979;28;20044;-80
2021/05/09 09:39:20;;;;;;;5.13;2.30;;;;;;;;;;6292423;28;20550;-76
2021/05/09 09:42:36;;;;;;;6.28;2.90;;;;;;;;;;6288079;28;20152;-77
2021/05/09 09:45:39;;;;;;;5.65;2.25;;;;;;;;;;6288168;28;20048;-78
2021/05/09 09:48:41;;;;;;;10.85;2.72;;;;;;;;;;6287498;28;20068;-77
2021/05/09 09:51:50;;;;;;;7.17;3.23;;;;;;;;;;6263270;28;20064;-77
2021/05/09 09:54:52;;;;;;;7.05;2.95;;;;;;;;;;6267548;28;20466;-78
2021/05/09 09:58:02;;;;;;;7.78;3.22;;;;;;;;;;6273315;28;20049;-77
2021/05/09 10:01:03;;;;;;;18.00;8.80;;;;;;;;;;6275219;28;20093;-78
2021/05/09 10:04:06;;;;;;;9.00;3.92;;;;;;;;;;6286461;28;20055;-78
2021/05/09 10:07:11;;;;;;;6.72;3.30;;;;;;;;;;6275916;28;20049;-78
2021/05/09 10:10:14;;;;;;;7.57;3.72;;;;;;;;;;6282325;28;20053;-78
2021/05/09 10:13:16;;;;;;;;;;;;;;;;;;6269848;28;20076;-79
2021/05/09 10:16:23;;;;;;;11.10;6.50;;;;;;;;;;6287402;28;19927;-78
2021/05/09 10:19:25;;;;;;;8.13;3.50;;;;;;;;;;6262164;28;20076;-77
2021/05/09 10:22:27;;;;;;;3.58;2.63;;;;;;;;;;6272496;28;20044;-75
2021/05/09 10:25:45;;;;;;;5.70;2.47;;;;;;;;;;6265371;28;20068;-75
2021/05/09 10:28:47;;;;;;;6.43;2.80;;;;;;;;;;6288950;28;20470;-75
2021/05/09 10:31:48;;;;;;;5.90;2.60;;;;;;;;;;6294028;28;20055;-77
2021/05/09 10:35:01;;;;;;;6.60;3.53;;;;;;;;;;6290503;28;20079;-82
2021/05/09 10:38:09;;;;;;;6.65;2.97;;;;;;;;;;6290931;28;20051;-79
2021/05/09 10:41:12;;;;;;;6.05;2.60;;;;;;;;;;6288514;28;20041;-80
2021/05/09 10:44:46;;;;;;;6.80;2.70;;;;;;;;;;6276477;28;20131;-78
2021/05/09 10:48:26;;;;;;;5.55;2.97;;;;;;;;;;6298742;28;20123;-78
2021/05/09 10:51:27;;;;;;;6.40;3.42;;;;;;;;;;6287194;28;20048;-78
2021/05/09 10:54:28;;;;;;;6.32;3.25;;;;;;;;;;6293568;28;20793;-79
2021/05/09 10:57:44;;;;;;;7.28;3.38;;;;;;;;;;6295423;28;20048;-78
2021/05/09 11:01:17;;;;;;;5.35;2.70;;;;;;;;;;6282342;28;20616;-76
2021/05/09 11:04:19;;;;;;;6.10;2.60;;;;;;;;;;6274273;28;20048;-75
2021/05/09 11:07:42;;;;;;;5.43;3.20;;;;;;;;;;6283718;28;20063;-77
2021/05/09 11:10:45;;;;;;;4.70;3.00;;;;;;;;;;6285950;28;20044;-77
2021/05/09 11:14:16;;;;;;;3.20;2.25;;;;;;;;;;6284761;28;20077;-75
2021/05/09 11:17:18;;;;;;;6.13;2.72;;;;;;;;;;6286276;28;20044;-77
2021/05/09 11:20:20;;;;;;;6.30;2.50;;;;;;;;;;6286736;28;20060;-77
2021/05/09 11:23:21;;;;;;;8.52;3.30;;;;;;;;;;6280465;28;20551;-76
2021/05/09 11:26:22;;;;;;;5.78;2.67;;;;;;;;;;6281648;28;20083;-76
2021/05/09 11:29:24;;;;;;;4.45;2.90;;;;;;;;;;6283132;28;20068;-76
2021/05/09 11:32:26;;;;;;;5.95;2.95;;;;;;;;;;6288993;28;20067;-76
2021/05/09 11:35:37;;;;;;;7.70;2.72;;;;;;;;;;6285291;28;20098;-77
2021/05/09 11:38:42;;;;;;;5.78;2.85;;;;;;;;;;6290234;28;20052;-77
2021/05/09 11:41:51;;;;;;;6.28;2.95;;;;;;;;;;6284387;28;20626;-74
2021/05/09 11:44:52;;;;;;;7.35;2.88;;;;;;;;;;6287373;28;20360;-76
2021/05/09 11:47:57;;;;;;;4.40;2.63;;;;;;;;;;6288031;28;20059;-76
2021/05/09 11:50:58;;;;;;;3.30;2.03;;;;;;;;;;6286324;28;20068;-76
2021/05/09 11:54:07;;;;;;;3.90;3.25;;;;;;;;;;6285204;28;20053;-76
2021/05/09 11:57:10;;;;;;;10.20;3.40;;;;;;;;;;6286405;28;20060;-77
2021/05/09 12:00:13;;;;;;;4.45;2.70;;;;;;;;;;6285524;28;20056;-77
2021/05/09 12:03:25;;;;;;;4.90;2.90;;;;;;;;;;6279719;28;20459;-76
2021/05/09 12:06:27;;;;;;;3.27;2.40;;;;;;;;;;6286053;28;20420;-77
2021/05/09 12:09:29;;;;;;;4.38;2.10;;;;;;;;;;6286141;28;20056;-77
2021/05/09 12:12:31;;;;;;;4.88;2.47;;;;;;;;;;6289663;28;20044;-77
2021/05/09 12:15:33;;;;;;;;;;;;;;;;;;6280554;28;20107;-76
2021/05/09 12:18:35;;;;;;;5.18;2.30;;;;;;;;;;6270392;28;19931;-77
2021/05/09 12:21:36;;;;;;;4.15;2.40;;;;;;;;;;6267955;28;20084;-77
2021/05/09 12:24:56;;;;;;;6.50;2.42;;;;;;;;;;6274930;28;20459;-80
2021/05/09 12:28:05;;;;;;;4.55;2.45;;;;;;;;;;6258903;28;20045;-77
2021/05/09 12:31:11;;;;;;;4.60;2.60;;;;;;;;;;6251407;28;20836;-76
2021/05/09 12:34:12;;;;;;;5.88;2.80;;;;;;;;;;6280764;28;20079;-76
2021/05/09 12:37:14;;;;;;;7.85;2.70;;;;;;;;;;6280074;28;20076;-77
2021/05/09 12:40:19;;;;;;;6.88;2.90;;;;;;;;;;6269558;28;20561;-74
2021/05/09 12:43:20;;;;;;;5.72;3.20;;;;;;;;;;6251184;28;20098;-74
2021/05/09 12:46:35;;;;;;;7.40;3.53;;;;;;;;;;6261185;28;20124;-78
2021/05/09 12:49:37;;;;;;;5.43;3.10;;;;;;;;;;6269657;28;20075;-78
2021/05/09 12:52:47;;;;;;;6.68;3.13;;;;;;;;;;6289810;28;20075;-81
2021/05/09 12:55:48;;;;;;;3.90;3.20;;;;;;;;;;6289547;28;20494;-79
2021/05/09 12:59:10;;;;;;;7.28;3.75;;;;;;;;;;6273014;28;20045;-78
2021/05/09 13:02:11;;;;;;;4.38;2.88;;;;;;;;;;6286567;28;20055;-77
2021/05/09 13:05:15;;;;;;;7.30;3.25;;;;;;;;;;6293716;28;20036;-78
2021/05/09 13:08:16;;;;;;;6.20;2.72;;;;;;;;;;6290180;28;20114;-79
2021/05/09 13:11:17;;;;;;;5.53;2.75;;;;;;;;;;6291914;28;20059;-81
2021/05/09 13:14:18;;;;;;;6.75;3.03;;;;;;;;;;6262872;28;20045;-76
2021/05/09 13:17:20;;;;;;;5.40;3.03;;;;;;;;;;6268300;28;20121;-79
2021/05/09 13:20:22;;;;;;;4.88;3.13;;;;;;;;;;6272678;28;20204;-78
2021/05/09 13:23:23;;;;;;;6.28;3.30;;;;;;;;;;6260822;28;20508;-74
2021/05/09 13:26:25;;;;;;;4.65;3.13;;;;;;;;;;6293836;28;20067;-73
2021/05/09 13:29:26;;;;;;;8.52;3.97;;;;;;;;;;6290009;28;20106;-75
2021/05/09 13:32:27;;;;;;;10.18;3.85;;;;;;;;;;6280443;28;20057;-75
2021/05/09 13:35:29;;;;;;;5.80;3.58;;;;;;;;;;6265676;28;20582;-76
2021/05/09 13:38:30;;;;;;;6.35;3.13;;;;;;;;;;6286635;28;20060;-75
2021/05/09 13:41:32;;;;;;;6.57;3.28;;;;;;;;;;6285750;28;20045;-78
2021/05/09 13:44:33;;;;;;;6.72;3.30;;;;;;;;;;6290838;28;20049;-76
2021/05/09 13:47:34;;;;;;;8.00;3.55;;;;;;;;;;6290407;28;20225;-77
2021/05/09 13:50:36;;;;;;;5.28;2.90;;;;;;;;;;6279271;28;20488;-76
2021/05/09 13:53:37;;;;;;;6.00;3.40;;;;;;;;;;6272819;28;20424;-76
2021/05/09 13:56:39;;;;;;;6.78;3.30;;;;;;;;;;6268689;28;20088;-76
2021/05/09 13:59:40;;;;;;;6.63;4.00;;;;;;;;;;6264179;28;20045;-76
2021/05/09 14:02:41;;;;;;;4.75;3.20;;;;;;;;;;6266416;28;20056;-76
2021/05/09 14:05:43;;;;;;;6.53;3.08;;;;;;;;;;6286404;28;20063;-76
2021/05/09 14:08:45;;;;;;;6.03;3.38;;;;;;;;;;6285451;28;20061;-76
2021/05/09 14:11:49;;;;;;;8.50;3.38;;;;;;;;;;6290145;28;20400;-76
2021/05/09 14:14:53;;;;;;;5.13;2.75;;;;;;;;;;6298840;28;20156;-76
2021/05/09 14:17:55;;;;;;;5.68;3.53;;;;;;;;;;6293971;28;20118;-76
2021/05/09 14:20:57;;;;;;;6.57;3.22;;;;;;;;;;6288048;28;20103;-82
2021/05/09 14:23:58;;;;;;;9.55;3.13;;;;;;;;;;6292854;28;20106;-76
2021/05/09 14:26:59;;;;;;;8.63;3.17;;;;;;;;;;6283700;28;20538;-76
2021/05/09 14:30:01;;;;;;;5.22;3.30;;;;;;;;;;6271190;28;20057;-78
2021/05/09 14:33:02;;;;;;;8.05;3.38;;;;;;;;;;6269482;28;20062;-82
2021/05/09 14:36:06;;;;;;;6.40;3.20;;;;;;;;;;6268467;28;20036;-79
2021/05/09 14:39:07;;;;;;;6.53;2.80;;;;;;;;;;6296751;28;20040;-78
2021/05/09 14:42:09;;;;;;;5.68;2.83;;;;;;;;;;6273237;28;20077;-76
2021/05/09 14:45:11;;;;;;;7.00;3.10;;;;;;;;;;6274365;28;20120;-75
2021/05/09 14:48:12;;;;;;;5.55;2.92;;;;;;;;;;6290086;28;20450;-76
2021/05/09 14:51:14;;;;;;;3.92;2.63;;;;;;;;;;6287953;28;20044;-76
2021/05/09 14:54:15;;;;;;;4.50;2.45;;;;;;;;;;6296724;28;20049;-77
2021/05/09 14:57:16;;;;;;;7.20;3.55;;;;;;;;;;6291429;28;20063;-75
2021/05/09 15:00:18;;;;;;;5.88;2.70;;;;;;;;;;6297372;28;20045;-76
2021/05/09 15:03:20;;;;;;;5.43;2.72;;;;;;;;;;6291518;28;20087;-76
2021/05/09 15:06:23;;;;;;;5.88;2.42;;;;;;;;;;6285903;28;20079;-77
2021/05/09 15:09:24;;;;;;;4.88;2.42;;;;;;;;;;6291370;28;20052;-75
2021/05/09 15:12:25;;;;;;;5.85;2.95;;;;;;;;;;6295194;28;20064;-75
2021/05/09 15:15:26;;;;;;;4.35;2.10;;;;;;;;;;6298009;28;20411;-75
2021/05/09 15:18:28;;;;;;;6.10;2.55;;;;;;;;;;6297356;28;20055;-76
2021/05/09 15:21:30;;;;;;;7.93;2.30;;;;;;;;;;6296543;28;20052;-76
2021/05/09 15:24:31;;;;;;;5.85;2.22;;;;;;;;;;6297655;28;20052;-76
2021/05/09 15:27:32;;;;;;;5.43;2.30;;;;;;;;;;6300874;28;20052;-75
2021/05/09 15:30:33;;;;;;;5.57;2.03;;;;;;;;;;6293501;28;20049;-76
2021/05/09 15:33:34;;;;;;;4.00;2.17;;;;;;;;;;6289960;28;20056;-76
2021/05/09 15:36:36;;;;;;;6.70;2.35;;;;;;;;;;6293269;28;20059;-77
2021/05/09 15:39:37;;;;;;;6.28;2.30;;;;;;;;;;6296103;28;20045;-77
2021/05/09 15:42:39;;;;;;;4.47;2.15;;;;;;;;;;6293888;28;20048;-75
2021/05/09 15:45:40;;;;;;;4.22;2.50;;;;;;;;;;6297209;28;20489;-76
2021/05/09 15:48:41;;;;;;;3.97;2.25;;;;;;;;;;6301597;28;20203;-76
2021/05/09 15:51:43;;;;;;;3.55;2.10;;;;;;;;;;6290147;28;20045;-77
2021/05/09 15:54:44;;;;;;;5.13;2.20;;;;;;;;;;6303368;28;20048;-76
2021/05/09 15:57:46;;;;;;;5.53;2.13;;;;;;;;;;6290026;28;20124;-75
2021/05/09 16:00:47;;;;;;;4.90;2.33;;;;;;;;;;6293413;28;20061;-76
2021/05/09 16:03:48;;;;;;;7.82;2.45;;;;;;;;;;6283596;28;20060;-76
2021/05/09 16:06:50;;;;;;;5.32;1.90;;;;;;;;;;6293357;28;20617;-75
2021/05/09 16:09:51;;;;;;;13.38;2.58;;;;;;;;;;6286486;28;20060;-75
2021/05/09 16:12:55;;;;;;;3.25;1.73;;;;;;;;;;6288741;28;20097;-75
2021/05/09 16:15:56;;;;;;;7.82;2.38;;;;;;;;;;6282463;28;20098;-76
2021/05/09 16:18:57;;;;;;;10.20;2.40;;;;;;;;;;6283245;28;20479;-75
2021/05/09 16:21:59;;;;;;;6.15;2.40;;;;;;;;;;6284147;28;20064;-76
2021/05/09 16:25:01;;;;;;;4.97;2.40;;;;;;;;;;6288296;28;20044;-77
2021/05/09 16:28:02;;;;;;;6.13;2.30;;;;;;;;;;6293573;28;20040;-76
2021/05/09 16:31:03;;;;;;;5.97;2.20;;;;;;;;;;6288631;28;20048;-79
2021/05/09 16:34:04;;;;;;;2.60;2.00;;;;;;;;;;6278553;28;20053;-76
2021/05/09 16:37:07;;;;;;;5.13;1.75;;;;;;;;;;6288568;28;20074;-80
2021/05/09 16:40:09;;;;;;;4.53;2.10;;;;;;;;;;6288115;28;20037;-75
2021/05/09 16:43:10;;;;;;;5.95;2.30;;;;;;;;;;6289039;28;20463;-75
2021/05/09 16:46:12;;;;;;;4.85;2.70;;;;;;;;;;6292132;28;20071;-76
2021/05/09 16:49:13;;;;;;;2.97;2.08;;;;;;;;;;6288603;28;20043;-75
2021/05/09 16:52:19;;;;;;;3.08;1.77;;;;;;;;;;6280965;28;20055;-75
2021/05/09 16:55:21;;;;;;;6.28;2.65;;;;;;;;;;6293708;28;20048;-75
2021/05/09 16:58:22;;;;;;;4.78;2.22;;;;;;;;;;6289643;28;20055;-77
2021/05/09 17:01:25;;;;;;;5.90;2.20;;;;;;;;;;6283245;28;20134;-75
2021/05/09 17:04:26;;;;;;;4.35;2.35;;;;;;;;;;6291109;28;20455;-76
2021/05/09 17:07:28;;;;;;;5.15;2.47;;;;;;;;;;6289072;28;20146;-75
2021/05/09 17:10:29;;;;;;;5.55;2.30;;;;;;;;;;6288191;28;20488;-75
2021/05/09 17:13:30;;;;;;;4.00;2.45;;;;;;;;;;6288743;28;20048;-74
2021/05/09 17:16:31;;;;;;;6.18;2.67;;;;;;;;;;6280766;28;20610;-74
2021/05/09 17:19:33;;;;;;;8.00;2.60;;;;;;;;;;6285975;28;20057;-73
2021/05/09 17:22:35;;;;;;;10.95;2.60;;;;;;;;;;6288828;28;20053;-76
2021/05/09 17:25:36;;;;;;;7.05;2.80;;;;;;;;;;6284987;28;20077;-76
2021/05/09 17:28:37;;;;;;;3.67;2.40;;;;;;;;;;6288883;28;20637;-74
2021/05/09 17:31:38;;;;;;;9.55;2.28;;;;;;;;;;6282711;28;20064;-74
2021/05/09 17:34:39;;;;;;;17.05;2.58;;;;;;;;;;6279228;28;20125;-77
2021/05/09 17:37:42;;;;;;;6.07;2.53;;;;;;;;;;6287774;28;20064;-74
2021/05/09 17:40:43;;;;;;;8.02;2.78;;;;;;;;;;6286236;28;20103;-74
2021/05/09 17:43:45;;;;;;;5.78;2.47;;;;;;;;;;6293175;28;20078;-76
2021/05/09 17:46:46;;;;;;;5.45;2.53;;;;;;;;;;6292154;28;20064;-75
2021/05/09 17:49:47;;;;;;;5.07;2.33;;;;;;;;;;6284913;28;20142;-75
2021/05/09 17:52:49;;;;;;;6.75;2.28;;;;;;;;;;6289508;28;20083;-76
2021/05/09 17:55:50;;;;;;;7.07;2.28;;;;;;;;;;6281924;28;20098;-75
2021/05/09 17:58:51;;;;;;;5.60;1.95;;;;;;;;;;6281679;28;20087;-75
2021/05/09 18:01:52;;;;;;;13.60;5.55;;;;;;;;;;6292782;28;20044;-78
2021/05/09 18:04:53;;;;;;;8.10;4.65;;;;;;;;;;6292872;28;20053;-77
2021/05/09 18:07:55;;;;;;;8.07;2.63;;;;;;;;;;6298750;28;20094;-76
2021/05/09 18:10:56;;;;;;;5.05;2.30;;;;;;;;;;6283255;28;20523;-77
2021/05/09 18:13:58;;;;;;;4.68;2.22;;;;;;;;;;6291332;28;20060;-75
2021/05/09 18:17:05;;;;;;;2.95;2.05;;;;;;;;;;6292333;28;20112;-75